Terminal Aerodrome Forecast
Issued by NWS Grand Rapids, MI

Home | Current Version | Previous Version | Text Only | Print | Product List | Glossary On
Versions: 1 2 3 4 5 6 7 8 9 10 11 12 13 14 15 16 17 18
000
FTUS43 KGRR 012300
TAFGRR
TAF
KGRR 012340Z 0200/0224 18008KT P6SM SCT120
     FM020300 19011G18KT P6SM BKN250
     FM021400 20015G25KT 5SM -SHRA BKN050
     FM021600 20015G25KT 4SM TSRA BR OVC035CB
     FM021900 26010G20KT 2SM -DZ BR OVC025=

USA.gov is the U.S. government's official web portal to all federal, state and local government web resources and services.